Last indexation completed on 2022-08-19 13:31:01 UTC

 
  Name Size Date (UTC) Last indexed Description
  Name Size Date (UTC) Last indexed Description
folder Parent directory - 2022-08-06 10:32:22

K3b Version 18.04.0
Thanx for downloading K3b - The CD Kreator
These are the features so far: - the most userfriendly interface ever ;-) - themable


SEE ALSO: README.txt

folder helper/ - 2022-08-04 11:10:21  
folder icons/ - 2021-05-03 10:24:51  
folder misc/ - 2022-08-04 11:10:21  
folder option/ - 2022-08-04 11:10:21  
folder pics/ - 2021-05-03 10:24:51  
folder projects/ - 2022-08-09 11:27:34  
folder rip/ - 2022-08-04 11:10:21  
folder services/ - 2022-08-18 11:01:04  
file CMakeLists.txt 9629 bytes 2022-05-04 13:35:39 -  
file k3b-cue.desktop 1087 bytes 2021-11-29 10:10:20 -  
file k3b-iso.desktop 1092 bytes 2021-11-29 10:10:20 -  
file k3b.cpp 52598 bytes 2022-08-04 11:10:21 2022-08-04 15:35:29  
file k3b.h 6538 bytes 2021-06-15 10:07:52 2021-12-21 13:29:13  
file k3b.notifyrc 40226 bytes 2022-06-13 10:29:15 -  
file k3baction.cpp 1840 bytes 2021-06-15 10:07:52 2021-12-21 13:29:13  
file k3baction.h 1162 bytes 2021-06-15 10:07:52 2021-12-21 13:29:13  
file k3bappdevicemanager.cpp 11268 bytes 2021-06-15 10:07:52 2021-12-21 13:29:14  
file k3bappdevicemanager.h 2701 bytes 2021-06-15 10:07:52 2021-12-21 13:29:14  
file k3bapplication.cpp 9450 bytes 2021-06-15 10:07:52 2021-12-21 13:29:14  
file k3bapplication.h 2802 bytes 2021-06-15 10:07:52 2021-12-21 13:29:14  
file k3baudioprojectinterface.cpp 1849 bytes 2021-06-15 10:07:52 2021-12-21 13:29:14  
file k3baudioprojectinterface.h 1386 bytes 2021-06-15 10:07:52 2021-12-21 13:29:14  
file k3bburnprogressdialog.cpp 4583 bytes 2021-06-15 10:07:52 2021-12-21 13:29:14  
file k3bburnprogressdialog.h 1096 bytes 2021-06-15 10:07:52 2021-12-21 13:29:14  
file k3bcontentsview.cpp 1578 bytes 2021-06-15 10:07:52 2021-12-21 13:29:14  
file k3bcontentsview.h 1086 bytes 2021-06-15 10:07:52 2021-12-21 13:29:14  
file k3bdatamodewidget.cpp 2825 bytes 2021-06-15 10:07:52 2021-12-21 13:29:14  
file k3bdatamodewidget.h 596 bytes 2021-06-15 10:07:52 2021-12-21 13:29:14  
file k3bdataprojectinterface.cpp 3002 bytes 2021-06-15 10:07:52 2021-12-21 13:29:14  
file k3bdataprojectinterface.h 2947 bytes 2021-06-15 10:07:52 2021-12-21 13:29:14  
file k3bdebuggingoutputcache.cpp 4053 bytes 2021-06-15 10:07:52 2021-12-21 13:29:14  
file k3bdebuggingoutputcache.h 991 bytes 2021-06-15 10:07:52 2021-12-21 13:29:14  
file k3bdebuggingoutputdialog.cpp 3021 bytes 2021-06-15 10:07:52 2021-12-21 13:29:14  
file k3bdebuggingoutputdialog.h 553 bytes 2021-06-15 10:07:52 2021-12-21 13:29:14  
file k3bdebuggingoutputfile.cpp 2156 bytes 2022-04-29 11:27:07 2022-04-29 15:34:37  
file k3bdebuggingoutputfile.h 619 bytes 2021-06-15 10:07:52 2021-12-21 13:29:15  
file k3bdevicedelegate.cpp 6923 bytes 2021-06-15 10:07:52 2021-12-21 13:29:15  
file k3bdevicedelegate.h 649 bytes 2021-06-15 10:07:52 2021-12-21 13:29:15  
file k3bdevicemenu.cpp 4983 bytes 2021-06-15 10:07:52 2021-12-21 13:29:15  
file k3bdevicemenu.h 1125 bytes 2021-06-15 10:07:52 2021-12-21 13:29:15  
file k3bdeviceui.rc 397 bytes 2021-05-03 10:24:51 -  
file k3bdiroperator.cpp 4368 bytes 2022-05-05 10:22:11 2022-05-05 13:55:44  
file k3bdiroperator.h 1448 bytes 2021-06-15 10:07:52 2021-12-21 13:29:15  
file k3bdirview.cpp 8327 bytes 2022-08-04 11:10:21 2022-08-04 15:35:30  
file k3bdirview.h 1221 bytes 2021-06-15 10:07:52 2021-12-21 13:29:15  
file k3bdiskinfoview.cpp 14475 bytes 2022-05-02 10:22:37 2022-05-02 12:23:40  
file k3bdiskinfoview.h 834 bytes 2021-06-15 10:07:52 2021-12-21 13:29:16  
file k3bemptydiscwaiter.cpp 31558 bytes 2022-04-29 11:27:07 2022-04-29 15:34:40  
file k3bemptydiscwaiter.h 3727 bytes 2021-06-15 10:07:52 2021-12-21 13:29:16  
file k3bfiletreeview.cpp 5170 bytes 2021-06-15 10:07:52 2021-12-21 13:29:16  
file k3bfiletreeview.h 1420 bytes 2021-06-15 10:07:52 2021-12-21 13:29:16  
file k3bfileview.cpp 5530 bytes 2022-05-04 13:35:39 2022-05-05 13:55:45  
file k3bfileview.h 847 bytes 2021-06-15 10:07:52 2021-12-21 13:29:16  
file k3bflatbutton.cpp 3559 bytes 2022-04-30 10:48:43 2022-04-30 14:59:02  
file k3bflatbutton.h 1194 bytes 2021-06-15 10:07:52 2021-12-21 13:29:17  
file k3binteractiondialog.cpp 14745 bytes 2021-06-15 10:07:52 2021-12-21 13:29:17  
file k3binteractiondialog.h 7701 bytes 2021-06-15 10:07:52 2021-12-21 13:29:17  
file k3binterface.cpp 4328 bytes 2021-06-15 10:07:52 2021-12-21 13:29:17  
file k3binterface.h 1978 bytes 2021-06-15 10:07:52 2021-12-21 13:29:17  
file k3bjobinterface.cpp 2311 bytes 2021-06-15 10:07:52 2021-12-21 13:29:17  
file k3bjobinterface.h 1315 bytes 2021-06-15 10:07:52 2021-12-21 13:29:17  
file k3bjobprogressdialog.cpp 22748 bytes 2022-04-29 11:27:07 2022-04-29 15:34:44  
file k3bjobprogressdialog.h 4114 bytes 2021-06-15 10:07:52 2021-12-21 13:29:18  
file k3blsofwrapper.cpp 2087 bytes 2022-04-30 10:48:43 2022-04-30 14:59:03  
file k3blsofwrapper.h 1043 bytes 2021-06-15 10:07:52 2021-12-21 13:29:18  
file k3blsofwrapperdialog.cpp 3980 bytes 2021-06-15 10:07:52 2021-12-21 13:29:18  
file k3blsofwrapperdialog.h 1018 bytes 2021-06-15 10:07:52 2021-12-21 13:29:18  
file k3bmediacontentsview.cpp 3321 bytes 2021-06-15 10:07:52 2021-12-21 13:29:18  
file k3bmediacontentsview.h 3057 bytes 2021-06-15 10:07:52 2021-12-21 13:29:18  
file k3bmediaselectioncombobox.cpp 12634 bytes 2021-06-15 10:07:52 2021-12-21 13:29:18  
file k3bmediaselectioncombobox.h 4032 bytes 2021-06-15 10:07:52 2021-12-21 13:29:18  
file k3bmediaselectiondialog.cpp 3536 bytes 2021-06-15 10:07:52 2021-12-21 13:29:18  
file k3bmediaselectiondialog.h 2265 bytes 2021-06-15 10:07:52 2021-12-21 13:29:18  
file k3bmediumdelegate.cpp 7314 bytes 2021-06-15 10:07:52 2021-12-21 13:29:19  
file k3bmediumdelegate.h 826 bytes 2021-06-15 10:07:52 2021-12-21 13:29:19  
file k3bmetaitemmodel.cpp 26150 bytes 2022-05-02 10:22:37 2022-05-02 12:23:43  
file k3bmetaitemmodel.h 4417 bytes 2021-06-15 10:07:52 2021-12-21 13:29:19  
file k3bmixedprojectinterface.cpp 669 bytes 2021-06-15 10:07:52 2021-12-21 13:29:19  
file k3bmixedprojectinterface.h 718 bytes 2021-06-15 10:07:52 2021-12-21 13:29:19  
file k3bmodelutils.cpp 2157 bytes 2021-06-15 10:07:52 2021-12-21 13:29:19  
file k3bmodelutils.h 1315 bytes 2021-06-15 10:07:52 2021-12-21 13:29:19  
file k3bmusicbrainz.cpp 1940 bytes 2021-06-15 10:07:52 2021-12-21 13:29:19  
file k3bmusicbrainz.h 798 bytes 2021-06-15 10:07:52 2021-12-21 13:29:19  
file k3bplacesmodel.cpp 6031 bytes 2022-05-05 10:22:11 2022-05-05 13:55:46  
file k3bplacesmodel.h 2740 bytes 2021-06-15 10:07:52 2021-12-21 13:29:19  
file k3bprojectinterface.cpp 2939 bytes 2021-06-15 10:07:52 2021-12-21 13:29:20  
file k3bprojectinterface.h 2041 bytes 2021-06-15 10:07:52 2021-12-21 13:29:20  
file k3bprojectmanager.cpp 19454 bytes 2021-06-15 10:07:52 2021-12-21 13:29:20  
file k3bprojectmanager.h 1916 bytes 2021-06-15 10:07:52 2021-12-21 13:29:20  
file k3bprojecttabwidget.cpp 5630 bytes 2021-06-15 10:07:52 2021-12-21 13:29:20  
file k3bprojecttabwidget.h 1500 bytes 2021-06-15 10:07:52 2021-12-21 13:29:20  
file k3bsplash.cpp 2272 bytes 2021-06-15 10:07:52 2021-12-21 13:29:20  
file k3bsplash.h 632 bytes 2021-06-15 10:07:52 2021-12-21 13:29:20  
file k3bstatusbarmanager.cpp 7580 bytes 2021-06-15 10:07:52 2021-12-21 13:29:20  
file k3bstatusbarmanager.h 1141 bytes 2021-06-15 10:07:52 2021-12-21 13:29:21  
file k3bsystemproblemdialog.cpp 39324 bytes 2022-08-04 11:10:21 2022-08-04 15:35:32  
file k3bsystemproblemdialog.h 2559 bytes 2021-06-15 10:07:52 2021-12-21 13:29:21  
file k3btempdirselectionwidget.cpp 8296 bytes 2022-05-04 13:35:39 2022-05-05 13:55:47  
file k3btempdirselectionwidget.h 2029 bytes 2021-06-15 10:07:52 2021-12-21 13:29:21  
file k3bthemedheader.cpp 3263 bytes 2021-06-15 10:07:52 2021-12-21 13:29:21  
file k3bthemedheader.h 1180 bytes 2021-06-15 10:07:52 2021-12-21 13:29:21  
file k3bthemedlabel.cpp 2264 bytes 2022-05-02 10:22:37 2022-05-02 12:23:47  
file k3bthemedlabel.h 733 bytes 2021-06-15 10:07:52 2021-12-21 13:29:21  
file k3bthememanager.cpp 8710 bytes 2021-06-15 10:07:52 2021-12-21 13:29:22  
file k3bthememanager.h 4291 bytes 2021-06-15 10:07:52 2021-12-21 13:29:22  
file k3btimeoutwidget.cpp 2528 bytes 2022-04-30 10:48:43 2022-04-30 14:59:04  
file k3btimeoutwidget.h 839 bytes 2021-06-15 10:07:52 2021-12-21 13:29:22  
file k3btrm.cpp 1435 bytes 2021-06-15 10:07:52 2021-12-21 13:29:22  
file k3btrm.h 888 bytes 2021-06-15 10:07:52 2021-12-21 13:29:22  
file k3bui.rc 1547 bytes 2021-05-03 10:24:51 -  
file k3burlnavigator.cpp 1887 bytes 2021-06-15 10:07:52 2021-12-21 13:29:22  
file k3burlnavigator.h 755 bytes 2021-06-15 10:07:52 2021-12-21 13:29:22  
file k3bviewcolumnadjuster.cpp 4989 bytes 2021-06-15 10:07:52 2021-12-21 13:29:22  
file k3bviewcolumnadjuster.h 1584 bytes 2021-06-15 10:07:52 2021-12-21 13:29:22  
file k3bwelcomewidget.cpp 13109 bytes 2021-06-15 10:07:52 2021-12-21 13:29:22  
file k3bwelcomewidget.h 2052 bytes 2021-06-15 10:07:52 2021-12-21 13:29:22  
file k3bwidgetshoweffect.cpp 4387 bytes 2021-06-15 10:07:52 2021-12-21 13:29:22  
file k3bwidgetshoweffect.h 2820 bytes 2021-06-15 10:07:52 2021-12-21 13:29:22  
file k3bwriterselectionwidget.cpp 22163 bytes 2022-04-30 10:48:43 2022-04-30 14:59:06  
file k3bwriterselectionwidget.h 4156 bytes 2021-06-15 10:07:52 2021-12-21 13:29:23  
file k3bwritingmodewidget.cpp 7999 bytes 2021-06-15 10:07:52 2021-12-21 13:29:23  
file k3bwritingmodewidget.h 2473 bytes 2021-06-15 10:07:52 2021-12-21 13:29:23  
file main.cpp 8223 bytes 2021-06-15 10:07:52 2021-12-21 13:29:23  
file Messages.sh 236 bytes 2021-05-03 10:24:51 2021-12-21 13:29:23  
file org.kde.k3b.appdata.xml 33377 bytes 2022-08-11 12:52:42 -  
file org.kde.k3b.desktop 5976 bytes 2022-07-03 10:40:12 -  
file sourceheader 481 bytes 2021-05-03 10:24:51 -  
file x-k3b.xml 2019 bytes 2022-08-18 11:01:04 -  
file XmlMessages.sh 265 bytes 2021-05-03 10:24:51 2021-12-21 13:29:23